BRS weather

Bristol Airport
Bristol, England, United Kingdom

Public forecast

Using degrees Celsius for public forecast. Weather courtesy of forecast.io.

Current aviation weather report (METAR) for Bristol Airport

Retrieved 2019/10/22 12:20 UTC (0 seconds ago):

EGGD 221220Z AUTO 22006KT 9999 NCD 12/07 Q1023

Aviation forecast (TAF) for Bristol Airport

Retrieved 2019/10/22 12:00 UTC (20 minutes ago):

TAF EGGD 221056Z 2212/2312 20005KT 9999 SCT040 PROB40 2221/2224 6000 BECMG 2300/2303 3000 BR PROB40 2301/2308 0300 FG VV/// BECMG 2308/2311 12010KT 9999 NSW PROB30 TEMPO 2308/2311 BKN004